TimeEST,TemperatureF,Dew PointF,Humidity,Sea Level PressureIn,VisibilityMPH,Wind Direction,Wind SpeedMPH,Gust SpeedMPH,PrecipitationIn,Events,Conditions,WindDirDegrees,DateUTC
12:54 AM,7.0,1.9,80,30.21,10.0,Calm,Calm,-,N/A,,Overcast,0,2013-01-06 05:54:00
1:54 AM,9.0,5.0,84,30.18,10.0,Calm,Calm,-,N/A,,Overcast,0,2013-01-06 06:54:00
2:54 AM,9.0,6.1,88,30.15,10.0,Calm,Calm,-,N/A,,Mostly Cloudy,0,2013-01-06 07:54:00
3:54 AM,10.9,6.1,81,30.12,7.0,Calm,Calm,-,0.00,Snow,Light Snow,0,2013-01-06 08:54:00
4:54 AM,12.0,8.1,84,30.08,10.0,Calm,Calm,-,0.00,,Overcast,0,2013-01-06 09:54:00
5:19 AM,12.2,8.6,85,30.01,2.5,Calm,Calm,-,0.00,Snow,Light Snow,0,2013-01-06 10:19:00
5:31 AM,12.2,8.6,85,30.00,1.8,Calm,Calm,-,0.00,Snow,Light Snow,0,2013-01-06 10:31:00
5:34 AM,12.2,8.6,85,30.00,2.0,Calm,Calm,-,0.00,Snow,Light Snow,0,2013-01-06 10:34:00
5:45 AM,12.2,8.6,85,30.01,4.0,Calm,Calm,-,0.00,Snow,Light Snow,0,2013-01-06 10:45:00
5:54 AM,12.9,9.0,84,30.06,3.0,Calm,Calm,-,0.00,Snow,Light Snow,0,2013-01-06 10:54:00
6:04 AM,12.2,8.6,85,30.00,2.5,Calm,Calm,-,0.01,Snow,Light Snow,0,2013-01-06 11:04:00
6:13 AM,12.2,8.6,85,30.00,2.0,SSW,3.5,-,0.01,Snow,Light Snow,200,2013-01-06 11:13:00
6:35 AM,12.2,10.4,92,30.00,1.8,Calm,Calm,-,0.01,Snow,Light Snow,0,2013-01-06 11:35:00
6:54 AM,12.9,10.0,88,30.05,1.5,Calm,Calm,-,0.01,Snow,Light Snow,0,2013-01-06 11:54:00
8:12 AM,15.8,12.2,86,29.97,3.0,Calm,Calm,-,0.00,Snow,Light Snow,0,2013-01-06 13:12:00
8:54 AM,17.1,14.0,88,30.02,3.0,Calm,Calm,-,0.00,Snow,Light Snow,0,2013-01-06 13:54:00
9:36 AM,19.4,15.8,86,29.97,1.5,Calm,Calm,-,0.00,Snow,Light Snow,0,2013-01-06 14:36:00
9:54 AM,19.9,15.1,81,30.01,2.0,Calm,Calm,-,0.00,Snow,Light Snow,0,2013-01-06 14:54:00
10:34 AM,21.2,15.8,80,29.94,4.0,Calm,Calm,-,0.01,Snow,Light Snow,0,2013-01-06 15:34:00
10:54 AM,21.0,17.1,85,29.98,4.0,Calm,Calm,-,0.01,Snow,Light Snow,0,2013-01-06 15:54:00
11:54 AM,23.0,19.0,85,29.95,9.0,Calm,Calm,-,0.00,,Overcast,0,2013-01-06 16:54:00
12:38 PM,23.0,19.4,86,29.88,1.8,Calm,Calm,-,0.00,Snow,Light Snow,0,2013-01-06 17:38:00
12:54 PM,24.1,19.9,84,29.92,3.0,Calm,Calm,-,0.00,Snow,Light Snow,0,2013-01-06 17:54:00
1:02 PM,24.8,19.4,80,29.88,2.0,Calm,Calm,-,0.00,Snow,Light Snow,0,2013-01-06 18:02:00
1:10 PM,24.8,19.4,80,29.87,1.8,North,3.5,-,0.00,Snow,Light Snow,10,2013-01-06 18:10:00
1:19 PM,24.8,19.4,80,29.87,2.5,Calm,Calm,-,0.00,Snow,Light Snow,0,2013-01-06 18:19:00
1:54 PM,25.0,21.0,85,29.91,2.0,Calm,Calm,-,0.00,Snow,Light Snow,0,2013-01-06 18:54:00
2:34 PM,26.6,21.2,80,29.87,3.0,Calm,Calm,-,0.00,Snow,Light Snow,0,2013-01-06 19:34:00
2:41 PM,26.6,23.0,86,29.87,4.0,Calm,Calm,-,0.00,Snow,Light Snow,0,2013-01-06 19:41:00
2:54 PM,27.0,23.0,85,29.91,5.0,Calm,Calm,-,0.00,,Overcast,0,2013-01-06 19:54:00
3:05 PM,28.4,24.8,86,29.86,5.0,Calm,Calm,-,N/A,,Overcast,0,2013-01-06 20:05:00
3:39 PM,26.6,23.0,86,29.86,2.0,Calm,Calm,-,0.00,Snow,Light Snow,0,2013-01-06 20:39:00
3:54 PM,27.0,23.0,85,29.91,2.5,Calm,Calm,-,0.00,Snow,Light Snow,0,2013-01-06 20:54:00
4:37 PM,26.6,23.0,86,29.87,1.8,Calm,Calm,-,0.00,Snow,Light Snow,0,2013-01-06 21:37:00
4:43 PM,26.6,23.0,86,29.87,3.0,Calm,Calm,-,0.00,Snow,Light Snow,0,2013-01-06 21:43:00
4:54 PM,26.1,24.1,92,29.91,2.5,Calm,Calm,-,0.00,Snow,Light Snow,0,2013-01-06 21:54:00
5:06 PM,26.6,24.8,93,29.87,1.8,Calm,Calm,-,0.00,Snow,Light Snow,0,2013-01-06 22:06:00
5:13 PM,26.6,23.0,86,29.87,2.0,Calm,Calm,-,0.01,Snow,Light Snow,0,2013-01-06 22:13:00
5:42 PM,26.6,23.0,86,29.87,1.8,Calm,Calm,-,0.01,Snow,Light Snow,0,2013-01-06 22:42:00
5:54 PM,26.1,23.0,88,29.92,1.2,Calm,Calm,-,0.01,Snow,Light Snow,0,2013-01-06 22:54:00
6:10 PM,26.6,23.0,86,29.88,2.0,Calm,Calm,-,0.00,Snow,Light Snow,0,2013-01-06 23:10:00
6:20 PM,26.6,24.8,93,29.88,2.0,Calm,Calm,-,0.00,Snow,Light Snow,0,2013-01-06 23:20:00
6:29 PM,26.6,24.8,93,29.88,3.0,Calm,Calm,-,0.00,Snow,Light Snow,0,2013-01-06 23:29:00
7:32 PM,26.6,24.8,93,29.89,1.8,Calm,Calm,-,0.00,Snow,Light Snow,0,2013-01-07 00:32:00
7:54 PM,26.1,24.1,92,29.93,1.8,Calm,Calm,-,0.01,Snow,Light Snow,0,2013-01-07 00:54:00
8:03 PM,26.6,24.8,93,29.89,2.0,Calm,Calm,-,0.00,Snow,Light Snow,0,2013-01-07 01:03:00
8:54 PM,28.0,25.0,88,29.92,1.8,Calm,Calm,-,0.00,Snow,Light Snow,0,2013-01-07 01:54:00
9:02 PM,26.6,24.8,93,29.89,2.5,North,3.5,-,0.00,Snow,Light Snow,360,2013-01-07 02:02:00
9:11 PM,26.6,24.8,93,29.89,3.0,Calm,Calm,-,0.00,Snow,Light Snow,0,2013-01-07 02:11:00
10:41 PM,26.6,24.8,93,29.91,3.0,Calm,Calm,-,0.00,Snow,Light Snow,0,2013-01-07 03:41:00
10:54 PM,27.0,24.1,89,29.95,3.0,NNE,3.5,-,0.00,Snow,Light Snow,30,2013-01-07 03:54:00
11:01 PM,26.6,24.8,93,29.92,3.0,NNE,3.5,-,0.00,Snow,Light Snow,20,2013-01-07 04:01:00
11:24 PM,26.6,24.8,93,29.92,2.5,NNE,3.5,-,0.00,Snow,Light Snow,20,2013-01-07 04:24:00
11:33 PM,26.6,24.8,93,29.92,3.0,North,3.5,-,0.00,Snow,Light Snow,10,2013-01-07 04:33:00
11:49 PM,26.6,24.8,93,29.93,1.8,Calm,Calm,-,0.00,Snow,Light Snow,0,2013-01-07 04:49:00
11:54 PM,27.0,25.0,92,29.97,1.5,Calm,Calm,-,0.01,Snow,Light Snow,0,2013-01-07 04:54:00